Time;durP1;ratioP1;P1;durP2;ratioP2;P2;SDS_P1;SDS_P2;PMS_P1;PMS_P2;Temp;Humidity;BMP_temperature;BMP_pressure;BME280_temperature;BME280_humidity;BME280_pressure;Samples;Min_cycle;Max_cycle;Signal;HPM_P1;HPM_P2
2021/12/15 00:01:25;;;;;;;19.95;8.70;;;;;;;1.57;62.47;94425.00;4953441;28;20027;-75
2021/12/15 00:03:50;;;;;;;16.60;8.23;;;;;;;1.61;62.04;94420.06;4939106;28;20481;-75
2021/12/15 00:06:18;;;;;;;14.40;6.70;;;;;;;1.39;61.95;94399.06;4955804;28;20158;-74
2021/12/15 00:08:51;;;;;;;14.55;7.20;;;;;;;1.68;61.37;94408.38;4934948;28;20464;-75
2021/12/15 00:11:17;;;;;;;12.75;7.30;;;;;;;1.75;61.15;94434.41;4950892;28;20070;-74
2021/12/15 00:13:45;;;;;;;12.20;7.75;;;;;;;1.59;61.17;94409.81;4954262;28;20049;-74
2021/12/15 00:16:12;;;;;;;17.52;7.97;;;;;;;1.10;61.54;94371.41;4953472;28;20605;-74
2021/12/15 00:18:44;;;;;;;17.00;8.38;;;;;;;1.53;61.72;94444.88;4958473;28;20042;-73
2021/12/15 00:21:12;;;;;;;13.77;7.45;;;;;;;1.60;61.94;94445.50;4949152;28;20045;-74
2021/12/15 00:23:39;;;;;;;16.73;8.10;;;;;;;1.68;61.81;94447.69;4952391;28;20062;-74
2021/12/15 00:26:04;;;;;;;12.13;6.75;;;;;;;1.81;61.23;94441.31;4935828;28;20073;-75
2021/12/15 00:28:30;;;;;;;19.60;8.43;;;;;;;1.79;61.02;94448.63;4957114;28;20481;-75
2021/12/15 00:30:56;;;;;;;17.00;8.18;;;;;;;1.74;60.59;94448.56;4944262;28;20051;-75
2021/12/15 00:33:21;;;;;;;14.60;8.10;;;;;;;1.82;60.09;94440.25;4955408;28;20039;-74
2021/12/15 00:35:47;;;;;;;16.60;9.40;;;;;;;1.58;60.47;94437.06;4946945;28;20506;-75
2021/12/15 00:38:12;;;;;;;19.27;8.52;;;;;;;1.19;60.96;94404.00;4953028;28;20039;-75
2021/12/15 00:40:38;;;;;;;14.65;8.20;;;;;;;1.30;60.97;94418.84;4951199;28;20038;-74
2021/12/15 00:43:04;;;;;;;11.52;6.68;;;;;;;1.34;61.27;94438.31;4953530;28;20501;-74
2021/12/15 00:45:30;;;;;;;13.98;7.43;;;;;;;1.34;61.47;94440.13;4937357;28;20753;-75
2021/12/15 00:47:56;;;;;;;18.35;8.20;;;;;;;1.24;61.60;94415.38;4956692;28;20034;-74
2021/12/15 00:50:24;;;;;;;22.05;8.55;;;;;;;1.43;61.80;94443.91;4935090;28;20088;-75
2021/12/15 00:52:50;;;;;;;14.20;6.85;;;;;;;1.33;61.30;94449.81;4955650;28;20097;-75
2021/12/15 00:55:19;;;;;;;19.80;8.93;;;;;;;1.23;62.08;94450.47;4954557;28;20031;-74
2021/12/15 00:57:45;;;;;;;13.65;6.97;;;;;;;1.35;61.98;94446.97;4954320;28;20046;-74
2021/12/15 01:00:22;;;;;;;23.33;8.45;;;;;;;0.98;61.91;94389.03;4937173;28;20046;-74
2021/12/15 01:02:48;;;;;;;16.33;7.68;;;;;;;1.20;61.96;94421.31;4938514;28;20039;-74
2021/12/15 01:05:18;;;;;;;15.65;6.90;;;;;;;1.14;61.92;94425.69;4956325;28;20353;-75
2021/12/15 01:07:44;;;;;;;17.60;8.15;;;;;;;1.14;62.17;94435.38;4950777;28;20038;-73
2021/12/15 01:10:13;;;;;;;20.13;8.25;;;;;;;1.05;62.59;94421.09;4954795;28;20033;-74
2021/12/15 01:20:55;;;;;;;12.95;6.32;;;;;;;1.25;61.98;94413.53;4951063;28;20066;-74
2021/12/15 01:23:24;;;;;;;13.98;6.53;;;;;;;1.32;61.55;94416.81;4951989;28;20081;-73
2021/12/15 01:26:00;;;;;;;12.45;5.95;;;;;;;1.33;61.56;94413.13;4952758;28;20510;-74
2021/12/15 01:28:26;;;;;;;17.88;6.78;;;;;;;1.06;61.82;94412.22;4953214;28;20121;-73
2021/12/15 01:30:54;;;;;;;16.08;7.65;;;;;;;1.13;61.97;94418.84;4954614;28;20034;-72
2021/12/15 01:33:21;;;;;;;16.55;7.20;;;;;;;0.83;62.68;94404.53;4953520;28;20460;-73
2021/12/15 01:35:49;;;;;;;10.18;5.30;;;;;;;1.01;62.72;94435.69;4950335;28;20152;-74
2021/12/15 01:38:17;;;;;;;14.57;7.07;;;;;;;1.12;62.24;94440.88;4956313;28;20166;-74
2021/12/15 01:40:45;;;;;;;18.20;7.80;;;;;;;0.95;62.56;94441.88;4957483;28;20513;-74
2021/12/15 01:43:33;;;;;;;14.07;6.35;;;;;;;0.85;63.00;94407.69;4958571;28;20053;-74
2021/12/15 01:48:59;;;;;;;16.80;8.27;;;;;;;0.98;62.90;94405.56;4959248;28;20089;-74
2021/12/15 01:51:24;;;;;;;16.88;8.05;;;;;;;1.22;62.64;94425.31;4960697;28;20050;-73
2021/12/15 01:53:50;;;;;;;11.95;7.07;;;;;;;1.22;62.16;94406.97;4957750;28;20039;-74
2021/12/15 01:56:16;;;;;;;13.23;7.43;;;;;;;1.32;61.43;94405.53;4959898;28;20042;-74
2021/12/15 01:58:41;;;;;;;16.85;7.65;;;;;;;1.25;61.91;94395.19;4953798;28;20019;-74
2021/12/15 02:01:08;;;;;;;14.82;8.00;;;;;;;1.42;61.89;94427.44;4960580;28;20069;-74
2021/12/15 02:03:35;;;;;;;14.00;7.38;;;;;;;1.50;61.72;94424.38;4956587;28;20069;-74
2021/12/15 02:06:01;;;;;;;14.20;8.00;;;;;;;1.22;61.62;94406.16;4962249;28;20043;-74
2021/12/15 02:08:27;;;;;;;14.43;7.78;;;;;;;1.41;61.79;94420.59;4958982;28;20078;-74
2021/12/15 02:10:53;;;;;;;11.40;6.63;;;;;;;1.40;61.32;94403.28;4943280;28;20058;-75
2021/12/15 02:13:19;;;;;;;11.75;6.60;;;;;;;1.57;60.92;94424.22;4944627;28;20058;-75
2021/12/15 02:15:50;;;;;;;13.02;7.15;;;;;;;1.35;60.39;94377.00;4961006;28;20117;-75
2021/12/15 02:18:21;;;;;;;12.80;7.68;;;;;;;1.44;61.09;94419.31;4936024;28;20042;-75
2021/12/15 02:20:59;;;;;;;14.73;8.10;;;;;;;1.73;61.12;94433.06;4954962;28;20039;-76
2021/12/15 02:23:33;;;;;;;15.38;8.40;;;;;;;1.61;60.31;94405.13;4931999;28;20035;-75
2021/12/15 02:26:00;;;;;;;19.73;8.05;;;;;;;1.51;60.16;94402.38;4959447;28;20390;-75
2021/12/15 02:28:26;;;;;;;13.30;7.55;;;;;;;1.78;59.84;94435.75;4960153;28;20041;-75
2021/12/15 02:31:09;;;;;;;16.98;7.90;;;;;;;1.40;60.04;94411.13;4954871;28;20078;-75
2021/12/15 02:34:03;;;;;;;16.05;6.75;;;;;;;1.21;60.69;94420.31;4955669;28;20607;-74
2021/12/15 02:39:14;;;;;;;14.10;7.18;;;;;;;0.75;61.83;94432.66;4956661;28;20924;-75
2021/12/15 02:41:41;;;;;;;14.50;7.20;;;;;;;0.75;62.10;94437.91;4956713;28;20596;-75
2021/12/15 02:44:18;;;;;;;11.68;6.97;;;;;;;0.69;62.27;94438.84;4959444;28;20051;-74
2021/12/15 02:46:44;;;;;;;18.50;8.77;;;;;;;0.50;62.27;94413.13;4957727;28;20046;-75
2021/12/15 02:49:13;;;;;;;16.65;8.20;;;;;;;0.47;63.00;94430.09;4959995;28;20129;-75
2021/12/15 02:51:40;;;;;;;15.30;8.15;;;;;;;0.22;62.98;94413.94;4955440;28;20328;-74
2021/12/15 02:54:07;;;;;;;16.33;6.90;;;;;;;0.12;63.67;94429.44;4957129;28;20070;-74
2021/12/15 02:56:34;;;;;;;17.67;9.15;;;;;;;-0.10;64.14;94445.78;4958181;28;20133;-74
2021/12/15 02:59:04;;;;;;;11.80;6.53;;;;;;;-0.14;64.85;94434.16;4953549;28;20053;-75
2021/12/15 03:01:53;;;;;;;16.10;6.18;;;;;;;0.09;64.46;94438.56;4956632;28;20030;-75
2021/12/15 03:04:43;;;;;;;14.45;7.55;;;;;;;0.13;64.20;94444.09;4959617;28;20026;-74
2021/12/15 03:07:24;;;;;;;15.23;7.50;;;;;;;0.12;64.11;94442.50;4954914;28;20054;-74
2021/12/15 03:15:33;;;;;;;11.32;7.65;;;;;;;0.16;63.59;94420.09;4954035;28;20046;-74
2021/12/15 03:18:14;;;;;;;22.05;8.43;;;;;;;0.34;63.49;94427.78;4955719;28;20451;-75
2021/12/15 03:20:53;;;;;;;13.45;7.97;;;;;;;0.39;63.31;94420.03;4952009;28;20066;-74
2021/12/15 03:23:25;;;;;;;12.38;6.07;;;;;;;0.56;62.90;94431.28;4955059;28;20122;-75
2021/12/15 03:25:51;;;;;;;14.55;6.85;;;;;;;0.69;62.01;94436.22;4947627;28;20438;-75
2021/12/15 03:39:18;;;;;;;9.95;6.32;;;;;;;1.14;60.30;94435.38;4955437;28;20054;-76
2021/12/15 03:41:44;;;;;;;10.52;5.50;;;;;;;1.24;59.68;94438.94;4954737;28;20426;-75
2021/12/15 03:44:09;;;;;;;8.43;5.90;;;;;;;0.98;59.27;94394.28;4960137;28;20051;-75
2021/12/15 03:46:35;;;;;;;8.88;5.55;;;;;;;1.14;58.93;94440.63;4956739;28;20042;-75
2021/12/15 03:49:01;;;;;;;9.00;5.43;;;;;;;1.17;59.03;94445.41;4955403;28;20508;-75
2021/12/15 03:51:26;;;;;;;7.35;4.93;;;;;;;0.99;59.40;94422.84;4958405;28;20041;-75
2021/12/15 03:53:52;;;;;;;6.88;4.88;;;;;;;1.11;59.10;94441.91;4955923;28;20385;-75
2021/12/15 03:56:18;;;;;;;10.70;5.53;;;;;;;0.90;59.65;94436.56;4955735;28;20114;-75
2021/12/15 03:58:45;;;;;;;8.68;4.95;;;;;;;1.13;59.73;94450.28;4952485;28;20046;-74
2021/12/15 04:01:19;;;;;;;8.15;5.03;;;;;;;1.22;59.59;94450.72;4957681;28;21054;-75
2021/12/15 04:03:49;;;;;;;14.75;6.43;;;;;;;0.94;58.46;94409.66;4960213;28;20042;-75
2021/12/15 04:06:30;;;;;;;9.45;4.95;;;;;;;0.99;59.19;94448.22;4950163;28;20217;-75
2021/12/15 04:08:56;;;;;;;14.43;6.72;;;;;;;1.03;58.85;94460.66;4953988;28;20043;-74
2021/12/15 04:11:32;;;;;;;9.25;5.93;;;;;;;0.90;59.03;94444.41;4952585;28;20125;-75
2021/12/15 04:14:00;;;;;;;7.88;5.10;;;;;;;0.95;59.36;94468.06;4946688;28;20035;-75
2021/12/15 04:18:56;;;;;;;9.68;5.25;;;;;;;0.85;59.43;94473.16;4950231;28;20447;-74
2021/12/15 04:21:21;;;;;;;9.27;5.13;;;;;;;0.78;59.06;94452.38;4934782;28;20404;-75
2021/12/15 04:23:54;;;;;;;11.63;5.80;;;;;;;0.97;58.78;94471.28;4950642;28;20497;-76
2021/12/15 04:26:20;;;;;;;12.48;5.97;;;;;;;0.98;58.71;94478.91;4948831;28;20047;-75
2021/12/15 04:28:45;;;;;;;12.13;5.90;;;;;;;0.70;58.88;94456.16;4949221;28;20093;-75
2021/12/15 04:31:14;;;;;;;16.10;8.15;;;;;;;0.70;58.83;94477.09;4949241;28;20023;-75
2021/12/15 04:33:50;;;;;;;13.05;6.53;;;;;;;0.64;58.89;94475.41;4951452;28;20529;-75
2021/12/15 04:36:17;;;;;;;15.57;7.70;;;;;;;0.50;59.30;94465.47;4950780;28;20158;-75
2021/12/15 04:38:44;;;;;;;18.40;6.50;;;;;;;0.41;59.59;94485.19;4950271;28;20035;-74
2021/12/15 04:41:16;;;;;;;10.55;6.70;;;;;;;0.31;59.65;94480.56;4948907;28;20047;-76
2021/12/15 04:43:42;;;;;;;15.85;6.70;;;;;;;0.27;60.21;94479.44;4948781;28;20394;-75
2021/12/15 04:46:10;;;;;;;13.48;6.40;;;;;;;0.33;60.23;94478.50;4944964;28;20035;-75
2021/12/15 04:48:37;;;;;;;10.60;6.47;;;;;;;0.52;59.65;94490.38;4947972;28;20093;-76
2021/12/15 04:51:03;;;;;;;15.43;6.32;;;;;;;0.30;59.21;94460.66;4947257;28;20471;-75
2021/12/15 04:53:29;;;;;;;13.05;5.88;;;;;;;0.35;59.56;94460.75;4931230;28;20617;-75
2021/12/15 04:55:54;;;;;;;10.07;5.82;;;;;;;0.54;59.56;94487.53;4952488;28;20047;-74
2021/12/15 04:58:20;;;;;;;14.30;6.90;;;;;;;0.49;59.37;94459.47;4950491;28;20393;-75
2021/12/15 05:00:50;;;;;;;12.18;7.28;;;;;;;0.48;59.21;94442.16;4947898;28;20133;-74
2021/12/15 05:03:16;;;;;;;15.73;6.03;;;;;;;0.53;59.14;94450.09;4951884;28;20050;-76
2021/12/15 05:05:41;;;;;;;7.05;4.90;;;;;;;0.82;58.77;94478.88;4943504;28;20037;-75
2021/12/15 05:08:08;;;;;;;10.65;5.47;;;;;;;0.82;59.23;94489.34;4951377;28;20086;-75
2021/12/15 05:10:35;;;;;;;9.68;5.85;;;;;;;1.02;58.69;94479.22;4951321;28;20517;-75
2021/12/15 05:13:01;;;;;;;11.27;5.25;;;;;;;0.87;58.71;94465.84;4952106;28;20616;-75
2021/12/15 05:15:27;;;;;;;11.27;5.55;;;;;;;0.69;58.11;94444.06;4949505;28;20588;-75
2021/12/15 05:17:52;;;;;;;10.02;5.13;;;;;;;1.04;58.03;94482.38;4950440;28;20039;-75
2021/12/15 05:20:18;;;;;;;9.23;4.97;;;;;;;0.75;58.03;94458.84;4946762;28;20081;-74
2021/12/15 05:22:44;;;;;;;11.35;5.82;;;;;;;0.68;58.57;94497.50;4934147;28;20026;-75
2021/12/15 05:25:10;;;;;;;8.82;4.65;;;;;;;0.67;58.33;94474.97;4949742;28;20092;-75
2021/12/15 05:27:38;;;;;;;9.48;5.20;;;;;;;0.84;58.19;94476.81;4947958;28;20038;-75
2021/12/15 05:30:09;;;;;;;8.48;4.90;;;;;;;0.39;58.54;94427.88;4937537;28;20085;-75
2021/12/15 05:32:35;;;;;;;10.23;5.72;;;;;;;1.00;57.90;94499.59;4953033;28;20046;-76
2021/12/15 05:35:01;;;;;;;12.82;5.80;;;;;;;0.74;58.14;94504.38;4950696;28;20043;-75
2021/12/15 05:37:27;;;;;;;9.82;5.95;;;;;;;0.76;57.92;94497.09;4953334;28;20031;-75
2021/12/15 05:39:54;;;;;;;12.77;5.22;;;;;;;0.62;57.72;94482.72;4949977;28;20182;-75
2021/12/15 05:42:21;;;;;;;7.55;5.10;;;;;;;0.48;57.99;94489.28;4943112;28;20751;-75
2021/12/15 05:44:48;;;;;;;9.95;5.43;;;;;;;0.56;58.24;94504.59;4947502;28;20122;-75
2021/12/15 05:47:15;;;;;;;11.63;5.78;;;;;;;0.37;58.24;94503.19;4949461;28;20035;-75
2021/12/15 05:49:41;;;;;;;12.38;6.75;;;;;;;0.20;59.02;94476.19;4948890;28;20472;-74
2021/12/15 05:52:07;;;;;;;9.95;5.60;;;;;;;0.22;59.21;94515.97;4947967;28;20045;-75
2021/12/15 05:54:34;;;;;;;13.85;7.20;;;;;;;0.25;59.34;94515.53;4950240;28;20035;-73
2021/12/15 05:56:59;;;;;;;12.77;6.63;;;;;;;0.08;59.26;94475.41;4949505;28;20038;-74
2021/12/15 05:59:25;;;;;;;14.20;5.90;;;;;;;0.17;59.31;94479.22;4947350;28;20039;-75
2021/12/15 06:01:51;;;;;;;7.55;5.88;;;;;;;0.03;59.55;94497.03;4949172;28;20707;-75
2021/12/15 06:04:16;;;;;;;11.73;5.97;;;;;;;0.16;59.83;94504.59;4948178;28;20442;-75
2021/12/15 06:06:42;;;;;;;13.15;8.38;;;;;;;0.14;59.57;94474.47;4949922;28;21033;-74
2021/12/15 06:09:10;;;;;;;14.68;7.38;;;;;;;0.39;59.41;94501.13;4949993;28;20030;-75
2021/12/15 06:11:36;;;;;;;10.90;6.57;;;;;;;0.37;59.05;94513.66;4942884;28;20605;-74
2021/12/15 06:14:02;;;;;;;9.73;5.57;;;;;;;0.08;59.26;94489.28;4947537;28;20042;-74
2021/12/15 06:16:27;;;;;;;13.57;6.70;;;;;;;0.04;59.70;94487.34;4948112;28;20034;-75
2021/12/15 06:18:53;;;;;;;12.60;5.82;;;;;;;-0.03;59.51;94481.44;4943019;28;20091;-74
2021/12/15 06:21:20;;;;;;;9.20;5.47;;;;;;;0.25;58.94;94512.91;4946248;28;20428;-75
2021/12/15 06:23:48;;;;;;;8.80;5.47;;;;;;;0.04;58.94;94500.44;4951919;28;20559;-74
2021/12/15 06:26:14;;;;;;;13.95;5.43;;;;;;;-0.08;59.41;94501.25;4941499;28;20042;-74
2021/12/15 06:28:40;;;;;;;11.95;6.40;;;;;;;0.02;59.76;94502.47;4954591;28;20102;-74
2021/12/15 06:31:08;;;;;;;15.73;6.80;;;;;;;0.17;59.82;94518.47;4953903;28;20179;-74
2021/12/15 06:33:38;;;;;;;8.88;5.22;;;;;;;0.15;59.14;94499.63;4955569;28;20053;-74
2021/12/15 06:36:05;;;;;;;9.48;6.32;;;;;;;0.26;58.86;94512.66;4951065;28;20333;-75
2021/12/15 06:38:34;;;;;;;13.60;6.75;;;;;;;0.39;59.25;94514.22;4950411;28;20592;-74
2021/12/15 06:41:01;;;;;;;9.90;6.38;;;;;;;0.38;58.56;94477.81;4948292;28;20138;-74
2021/12/15 06:43:27;;;;;;;12.40;6.60;;;;;;;0.73;58.66;94521.16;4955765;28;20035;-74
2021/12/15 06:59:26;;;;;;;11.10;6.35;;;;;;;0.27;58.43;94516.88;4959915;28;20073;-74
2021/12/15 07:01:52;;;;;;;9.68;5.57;;;;;;;0.11;58.60;94508.94;4959084;28;20568;-74
2021/12/15 07:04:20;;;;;;;12.43;6.45;;;;;;;0.11;59.12;94537.69;4959120;28;20246;-75
2021/12/15 07:06:48;;;;;;;10.95;6.15;;;;;;;0.08;59.29;94535.56;4955168;28;20043;-74
2021/12/15 07:09:14;;;;;;;7.88;4.80;;;;;;;-0.08;59.47;94537.03;4957967;28;20049;-74
2021/12/15 07:11:40;;;;;;;8.75;5.50;;;;;;;-0.10;59.57;94532.06;4943874;28;20357;-74
2021/12/15 07:14:05;;;;;;;8.32;6.00;;;;;;;-0.04;59.76;94537.41;4957966;28;20038;-75
2021/12/15 07:16:33;;;;;;;10.85;6.40;;;;;;;-0.22;59.70;94554.78;4953694;28;20085;-74
2021/12/15 07:19:09;;;;;;;10.48;5.35;;;;;;;-0.21;60.36;94538.09;4957656;28;20516;-75
2021/12/15 07:21:38;;;;;;;9.30;6.13;;;;;;;-0.21;60.01;94521.59;4944649;28;20042;-75
2021/12/15 07:24:06;;;;;;;10.02;5.75;;;;;;;0.02;59.87;94541.69;4942516;28;20105;-75
2021/12/15 07:26:32;;;;;;;10.43;6.07;;;;;;;0.02;59.74;94541.69;4958097;28;20441;-74
2021/12/15 07:28:58;;;;;;;10.27;5.68;;;;;;;-0.02;59.70;94553.66;4956967;28;20042;-74
2021/12/15 07:31:23;;;;;;;9.95;5.75;;;;;;;-0.19;59.98;94550.94;4957620;28;20034;-74
2021/12/15 07:33:49;;;;;;;13.20;5.22;;;;;;;-0.38;60.18;94529.34;4961959;28;20042;-75
2021/12/15 07:36:16;;;;;;;12.00;6.68;;;;;;;-0.11;60.51;94556.63;4957726;28;20538;-75
2021/12/15 07:38:42;;;;;;;13.52;5.95;;;;;;;-0.14;60.65;94546.59;4961041;28;20494;-74
2021/12/15 07:41:17;;;;;;;9.77;6.40;;;;;;;-0.05;60.36;94533.19;4959141;28;20055;-74
2021/12/15 07:43:43;;;;;;;7.95;5.53;;;;;;;0.14;59.97;94555.56;4957486;28;20026;-74
2021/12/15 07:46:08;;;;;;;12.73;5.90;;;;;;;0.20;59.84;94563.28;4957587;28;20073;-74
2021/12/15 07:48:35;;;;;;;8.43;4.85;;;;;;;-0.12;60.03;94547.19;4941202;28;20114;-74
2021/12/15 07:51:02;;;;;;;9.60;6.13;;;;;;;0.24;59.60;94576.72;4955318;28;20097;-75
2021/12/15 07:53:28;;;;;;;8.80;5.43;;;;;;;0.24;59.44;94572.28;4958116;28;20046;-74
2021/12/15 07:55:54;;;;;;;11.07;6.35;;;;;;;0.24;59.69;94576.72;4955745;28;20478;-74
2021/12/15 07:58:22;;;;;;;11.98;7.10;;;;;;;0.29;59.13;94575.00;4955969;28;20042;-74
2021/12/15 08:00:49;;;;;;;15.05;8.18;;;;;;;0.09;59.91;94573.78;4956787;28;20035;-74
2021/12/15 08:03:16;;;;;;;13.57;6.15;;;;;;;0.23;59.95;94583.75;4956026;28;20134;-74
2021/12/15 08:05:43;;;;;;;14.43;7.78;;;;;;;0.28;60.37;94586.47;4958106;28;20126;-75
2021/12/15 08:08:10;;;;;;;17.45;8.25;;;;;;;0.34;59.92;94571.69;4953256;28;20524;-73
2021/12/15 08:10:36;;;;;;;14.70;7.63;;;;;;;0.43;59.31;94561.66;4949810;28;20034;-74
2021/12/15 08:13:02;;;;;;;10.27;6.53;;;;;;;0.33;59.11;94580.56;4954795;28;20081;-74
2021/12/15 08:15:28;;;;;;;10.90;5.47;;;;;;;0.31;58.80;94593.06;4953510;28;20035;-75
2021/12/15 08:17:53;;;;;;;10.85;5.68;;;;;;;0.05;59.30;94594.38;4954183;28;20117;-75
2021/12/15 08:20:26;;;;;;;12.32;7.05;;;;;;;0.11;59.30;94600.47;4956709;28;20031;-74
2021/12/15 08:22:52;;;;;;;7.60;5.25;;;;;;;0.10;59.31;94591.88;4954501;28;20054;-74
2021/12/15 08:25:20;;;;;;;14.70;5.80;;;;;;;0.09;59.48;94610.38;4955801;28;20053;-75
2021/12/15 08:27:48;;;;;;;8.45;4.55;;;;;;;-0.05;59.92;94603.81;4952646;28;21359;-74
2021/12/15 08:30:20;;;;;;;14.88;7.13;;;;;;;-0.48;60.34;94557.84;4938208;28;20510;-74
2021/12/15 08:32:52;;;;;;;8.95;5.22;;;;;;;-0.42;61.36;94605.81;4939375;28;20057;-75
2021/12/15 08:35:21;;;;;;;7.50;4.88;;;;;;;-0.43;61.79;94599.00;4953619;28;20618;-74
2021/12/15 08:37:47;;;;;;;9.55;5.28;;;;;;;-0.43;61.90;94604.22;4954851;28;20485;-75
2021/12/15 08:40:15;;;;;;;10.95;6.10;;;;;;;-0.58;62.35;94594.97;4957172;28;20068;-74
2021/12/15 08:42:40;;;;;;;8.82;5.75;;;;;;;-0.41;62.32;94589.91;4951546;28;20078;-74
2021/12/15 08:45:07;;;;;;;10.85;5.35;;;;;;;-0.19;61.44;94621.53;4950819;28;20142;-74
2021/12/15 08:47:33;;;;;;;9.77;5.70;;;;;;;-0.31;61.96;94624.13;4948489;28;20038;-74
2021/12/15 08:49:58;;;;;;;9.02;5.40;;;;;;;-0.14;62.26;94621.66;4952164;28;20054;-75
2021/12/15 08:52:24;;;;;;;9.45;5.10;;;;;;;-0.32;61.07;94587.75;4952275;28;20023;-75
2021/12/15 08:54:49;;;;;;;12.75;5.70;;;;;;;-0.08;61.71;94618.09;4951396;28;20494;-74
2021/12/15 08:57:15;;;;;;;6.95;4.40;;;;;;;-0.00;60.83;94614.38;4950695;28;20072;-74
2021/12/15 08:59:41;;;;;;;8.75;5.03;;;;;;;0.02;60.17;94633.22;4947450;28;20047;-74
2021/12/15 09:02:06;;;;;;;9.90;4.78;;;;;;;0.06;60.32;94629.94;4944928;28;20049;-74
2021/12/15 09:04:32;;;;;;;8.98;4.72;;;;;;;0.09;60.30;94631.31;4951467;28;20026;-74
2021/12/15 09:06:58;;;;;;;12.00;5.28;;;;;;;0.12;60.06;94625.63;4953931;28;20404;-75
2021/12/15 09:09:25;;;;;;;11.65;6.47;;;;;;;0.12;59.97;94621.19;4953775;28;20035;-74
2021/12/15 09:11:52;;;;;;;12.75;7.60;;;;;;;-0.07;59.83;94612.66;4954734;28;20405;-74
2021/12/15 09:14:18;;;;;;;9.63;4.47;;;;;;;-0.25;60.52;94625.84;4955810;28;20121;-74
2021/12/15 09:16:48;;;;;;;6.70;4.25;;;;;;;-0.42;60.23;94613.66;4952128;28;20452;-73
2021/12/15 09:19:14;;;;;;;8.88;5.13;;;;;;;-0.53;60.94;94623.06;4953031;28;20085;-74
2021/12/15 09:21:42;;;;;;;5.97;4.63;;;;;;;-0.92;61.73;94594.91;4937365;28;20043;-74
2021/12/15 09:24:09;;;;;;;8.40;5.20;;;;;;;-0.77;62.19;94631.84;4955285;28;20368;-74
2021/12/15 09:26:35;;;;;;;6.38;4.05;;;;;;;-0.89;62.59;94608.31;4955929;28;20073;-74
2021/12/15 09:29:03;;;;;;;7.15;5.25;;;;;;;-0.74;62.72;94631.41;4954239;28;20034;-74
2021/12/15 09:31:28;;;;;;;8.40;5.32;;;;;;;-0.78;62.74;94612.00;4955658;28;20355;-73
2021/12/15 09:33:55;;;;;;;7.82;5.82;;;;;;;-0.65;62.73;94620.44;4956088;28;20911;-74
2021/12/15 09:36:21;;;;;;;9.43;4.35;;;;;;;-0.69;62.72;94608.03;4951728;28;20446;-74
2021/12/15 09:38:54;;;;;;;7.97;4.32;;;;;;;-0.66;62.84;94623.25;4934964;28;20134;-75
2021/12/15 09:41:23;;;;;;;9.15;4.70;;;;;;;-0.95;63.36;94594.34;4954427;28;20042;-76
2021/12/15 09:43:51;;;;;;;12.20;4.95;;;;;;;-0.73;63.63;94627.78;4951674;28;20042;-73
2021/12/15 09:46:31;;;;;;;9.60;5.63;;;;;;;-0.69;63.70;94631.56;4953657;28;20030;-74
2021/12/15 10:10:44;;;;;;;7.22;4.50;;;;;;;-0.55;62.08;94607.63;4957309;28;20526;-74
2021/12/15 10:19:17;;;;;;;7.03;4.45;;;;;;;-0.86;62.18;94575.72;4934695;28;20090;-74
2021/12/15 10:22:00;;;;;;;6.90;4.50;;;;;;;-0.61;62.46;94599.88;4951735;28;20053;-75
2021/12/15 10:24:28;;;;;;;8.88;4.35;;;;;;;-0.50;61.93;94601.72;4950841;28;20537;-74
2021/12/15 10:27:01;;;;;;;10.63;5.13;;;;;;;-0.54;62.45;94596.16;4954978;28;20133;-74
2021/12/15 10:29:27;;;;;;;9.88;5.43;;;;;;;-0.65;62.22;94572.59;4955015;28;20118;-74
2021/12/15 10:32:02;;;;;;;7.00;5.25;;;;;;;-0.43;62.56;94604.22;4951256;28;20053;-74
2021/12/15 10:34:28;;;;;;;;;;;;;;;-0.29;62.67;94603.81;4956012;28;20029;-74
2021/12/15 10:36:54;;;;;;;8.55;5.40;;;;;;;-0.37;62.44;94598.09;4954108;28;19918;-74
2021/12/15 10:39:21;;;;;;;8.63;5.10;;;;;;;-0.23;62.67;94591.63;4953539;28;20050;-75
2021/12/15 10:41:48;;;;;;;13.52;5.75;;;;;;;-0.23;62.21;94587.19;4953491;28;20047;-75
2021/12/15 10:44:23;;;;;;;9.75;5.53;;;;;;;-0.11;62.10;94580.16;4953225;28;20038;-75
2021/12/15 10:46:52;;;;;;;;;;;;;;;-0.12;62.01;94588.22;4955268;28;20510;-75
2021/12/15 10:49:31;;;;;;;14.38;9.43;;;;;;;-0.17;61.84;94588.09;4953548;28;19922;-75
2021/12/15 10:52:15;;;;;;;11.15;6.85;;;;;;;-0.09;61.87;94587.75;4955341;28;20046;-74
2021/12/15 10:54:50;;;;;;;11.23;6.47;;;;;;;-0.09;62.00;94587.75;4955807;28;20039;-74
2021/12/15 10:57:29;;;;;;;11.07;6.22;;;;;;;-0.25;61.93;94568.34;4952958;28;20042;-74
2021/12/15 10:59:55;;;;;;;12.10;6.43;;;;;;;-0.27;62.14;94565.13;4952682;28;20380;-75
2021/12/15 11:02:29;;;;;;;7.55;4.63;;;;;;;-0.14;62.09;94564.91;4953807;28;20049;-75
2021/12/15 11:05:05;;;;;;;8.43;5.45;;;;;;;-0.09;61.69;94557.16;4953257;28;20074;-75
2021/12/15 11:07:37;;;;;;;10.25;5.95;;;;;;;0.01;61.71;94579.34;4956222;28;20026;-75
2021/12/15 11:10:13;;;;;;;11.52;5.03;;;;;;;0.00;61.72;94586.41;4935533;28;20049;-75
2021/12/15 11:13:12;;;;;;;8.93;4.70;;;;;;;0.09;61.60;94581.63;4955410;28;20080;-74
2021/12/15 11:15:45;;;;;;;7.35;5.30;;;;;;;0.14;61.65;94571.25;4952406;28;20058;-75
2021/12/15 11:18:20;;;;;;;8.95;4.93;;;;;;;0.13;61.61;94564.44;4953557;28;20117;-75
2021/12/15 11:20:50;;;;;;;11.93;5.90;;;;;;;0.11;61.70;94546.34;4950134;28;20046;-75
2021/12/15 11:23:19;;;;;;;10.32;5.93;;;;;;;0.25;61.56;94552.91;4953419;28;20281;-75
2021/12/15 11:25:49;;;;;;;8.77;5.45;;;;;;;0.44;61.39;94556.19;4950772;28;20031;-75
2021/12/15 11:28:26;;;;;;;10.95;5.97;;;;;;;0.48;61.14;94567.78;4948533;28;20027;-74
2021/12/15 11:30:54;;;;;;;10.57;5.78;;;;;;;0.44;61.62;94571.09;4952997;28;20474;-75
2021/12/15 11:33:22;;;;;;;18.92;9.48;;;;;;;0.48;61.64;94575.63;4954827;28;20034;-75
2021/12/15 11:36:22;;;;;;;17.05;9.90;;;;;;;0.39;61.94;94571.78;4954094;28;20391;-75
2021/12/15 11:38:59;;;;;;;10.48;6.13;;;;;;;0.30;62.22;94554.88;4949685;28;20051;-75
2021/12/15 11:41:26;;;;;;;10.15;6.68;;;;;;;0.45;62.05;94570.06;4953255;28;20042;-74
2021/12/15 11:43:57;;;;;;;13.85;7.22;;;;;;;0.42;61.61;94545.16;4954858;28;20548;-75
2021/12/15 11:46:31;;;;;;;13.10;7.15;;;;;;;0.50;61.38;94539.53;4953207;28;20034;-75
2021/12/15 11:49:01;;;;;;;12.05;6.55;;;;;;;0.60;61.60;94555.44;4953900;28;20038;-75
2021/12/15 11:51:53;;;;;;;12.23;5.90;;;;;;;0.66;60.65;94565.00;4955910;28;20054;-75
2021/12/15 11:54:18;;;;;;;9.05;6.15;;;;;;;0.51;60.94;94567.31;4953732;28;20049;-75
2021/12/15 11:56:45;;;;;;;12.75;6.70;;;;;;;0.56;61.03;94554.31;4949926;28;20050;-75
2021/12/15 11:59:17;;;;;;;12.60;6.15;;;;;;;0.65;61.03;94565.22;4951935;28;20134;-74
2021/12/15 12:01:59;;;;;;;12.85;7.13;;;;;;;0.40;61.28;94522.88;4954077;28;20488;-75
2021/12/15 12:04:30;;;;;;;10.63;6.47;;;;;;;0.67;61.15;94563.97;4955309;28;20117;-75
2021/12/15 12:07:19;;;;;;;14.60;7.72;;;;;;;0.74;61.26;94546.28;4951354;28;20549;-74
2021/12/15 12:09:48;;;;;;;11.88;7.85;;;;;;;0.97;60.51;94552.47;4954466;28;20045;-74
2021/12/15 12:12:16;;;;;;;10.27;6.97;;;;;;;1.07;59.79;94545.59;4951166;28;20047;-74
2021/12/15 12:14:49;;;;;;;12.50;7.22;;;;;;;1.21;59.64;94559.19;4948815;28;20042;-75
2021/12/15 12:17:26;;;;;;;13.25;7.15;;;;;;;1.08;59.33;94568.09;4949863;28;20046;-75
2021/12/15 12:19:56;;;;;;;11.02;7.15;;;;;;;1.04;59.11;94551.28;4954955;28;20117;-74
2021/12/15 12:22:24;;;;;;;12.00;6.40;;;;;;;1.05;58.97;94555.50;4956813;28;20541;-75
2021/12/15 12:24:53;;;;;;;14.82;7.32;;;;;;;0.77;60.21;94551.06;4952824;28;20567;-75
2021/12/15 12:27:21;;;;;;;13.70;7.68;;;;;;;0.80;60.21;94544.56;4955778;28;20289;-74
2021/12/15 12:29:46;;;;;;;13.27;7.70;;;;;;;1.12;60.09;94569.25;4934938;28;20332;-75
2021/12/15 12:32:12;;;;;;;14.32;8.05;;;;;;;1.03;59.43;94564.63;4957146;28;20154;-75
2021/12/15 12:34:40;;;;;;;11.05;7.40;;;;;;;1.00;59.28;94565.88;4956862;28;20030;-74
2021/12/15 12:37:06;;;;;;;12.35;7.30;;;;;;;0.64;59.91;94548.72;4961305;28;20315;-73
2021/12/15 12:39:34;;;;;;;14.35;7.40;;;;;;;0.63;60.39;94560.22;4965630;28;20046;-74
2021/12/15 12:42:00;;;;;;;16.15;8.95;;;;;;;0.68;60.61;94573.41;4956765;28;20052;-74
2021/12/15 12:44:37;;;;;;;18.17;7.18;;;;;;;0.21;61.04;94535.28;4936461;28;20039;-75
2021/12/15 12:47:18;;;;;;;12.88;8.15;;;;;;;0.31;61.61;94577.38;4954145;28;20039;-74
2021/12/15 13:00:56;;;;;;;24.17;9.05;;;;;;;0.29;61.53;94558.50;4954827;28;20061;-75
2021/12/15 13:03:36;;;;;;;15.88;7.72;;;;;;;0.39;61.57;94579.66;4959302;28;20042;-75
2021/12/15 13:06:29;;;;;;;14.68;8.63;;;;;;;0.16;61.86;94537.81;4957524;28;20039;-76
2021/12/15 13:09:05;;;;;;;14.70;9.18;;;;;;;0.40;61.71;94564.75;4959551;28;20034;-74